Aviation Digital Data Service (ADDS)

Output produced by METARs form (2252 UTC 22 June 2018)
found at http://www.aviationweather.gov/adds/metars/
 
METAR text: K2G4 222235Z AUTO 12014G23KT M1/4SM OVC001 13/13 A2990 RMK AO1
Conditions at: K2G4 (GARRETT CO , MD, US) observed 2235 UTC 22 June 2018
Temperature: 13.0°C (55°F)
Dewpoint: 13.0°C (55°F) [RH = 100%]
Pressure (altimeter): 29.90 inches Hg (1012.6 mb)
Winds: from the ESE (120 degrees) at 16 MPH (14 knots; 7.3 m/s)
gusting to 26 MPH (23 knots; 12.0 m/s)
Visibility: 0.25 miles (0.40 km)
Ceiling: 100 feet AGL
Clouds: overcast cloud deck at 100 feet AGL
Weather: automated observation with no human augmentation;
there may or may not be significant weather present at this time

METAR text: K2G4 222215Z AUTO 12014G20KT M1/4SM OVC001 13/13 A2990 RMK AO1
Conditions at: K2G4 (GARRETT CO , MD, US) observed 2215 UTC 22 June 2018
Temperature: 13.0°C (55°F)
Dewpoint: 13.0°C (55°F) [RH = 100%]
Pressure (altimeter): 29.90 inches Hg (1012.6 mb)
Winds: from the ESE (120 degrees) at 16 MPH (14 knots; 7.3 m/s)
gusting to 23 MPH (20 knots; 10.4 m/s)
Visibility: 0.25 miles (0.40 km)
Ceiling: 100 feet AGL
Clouds: overcast cloud deck at 100 feet AGL
Weather: automated observation with no human augmentation;
there may or may not be significant weather present at this time

METAR text: K2G4 222155Z AUTO 12016G20KT M1/4SM OVC001 13/13 A2990 RMK AO1
Conditions at: K2G4 (GARRETT CO , MD, US) observed 2155 UTC 22 June 2018
Temperature: 13.0°C (55°F)
Dewpoint: 13.0°C (55°F) [RH = 100%]
Pressure (altimeter): 29.90 inches Hg (1012.6 mb)
Winds: from the ESE (120 degrees) at 18 MPH (16 knots; 8.3 m/s)
gusting to 23 MPH (20 knots; 10.4 m/s)
Visibility: 0.25 miles (0.40 km)
Ceiling: 100 feet AGL
Clouds: overcast cloud deck at 100 feet AGL
Weather: automated observation with no human augmentation;
there may or may not be significant weather present at this time

METAR text: K2G4 222135Z AUTO 12013G20KT 102V162 M1/4SM OVC001 13/13 A2991 RMK AO1
Conditions at: K2G4 (GARRETT CO , MD, US) observed 2135 UTC 22 June 2018
Temperature: 13.0°C (55°F)
Dewpoint: 13.0°C (55°F) [RH = 100%]
Pressure (altimeter): 29.91 inches Hg (1013.0 mb)
Winds: from the ESE (120 degrees) at 15 MPH (13 knots; 6.8 m/s)
gusting to 23 MPH (20 knots; 10.4 m/s)
Visibility: 0.25 miles (0.40 km)
Ceiling: 100 feet AGL
Clouds: overcast cloud deck at 100 feet AGL
Weather: automated observation with no human augmentation;
there may or may not be significant weather present at this time

METAR text: K2G4 222115Z AUTO 12015G20KT M1/4SM OVC001 13/13 A2991 RMK AO1
Conditions at: K2G4 (GARRETT CO , MD, US) observed 2115 UTC 22 June 2018
Temperature: 13.0°C (55°F)
Dewpoint: 13.0°C (55°F) [RH = 100%]
Pressure (altimeter): 29.91 inches Hg (1013.0 mb)
Winds: from the ESE (120 degrees) at 17 MPH (15 knots; 7.8 m/s)
gusting to 23 MPH (20 knots; 10.4 m/s)
Visibility: 0.25 miles (0.40 km)
Ceiling: 100 feet AGL
Clouds: overcast cloud deck at 100 feet AGL
Weather: automated observation with no human augmentation;
there may or may not be significant weather present at this time

METAR text: K2G4 222055Z AUTO 12012G21KT M1/4SM OVC001 13/13 A2992 RMK AO1
Conditions at: K2G4 (GARRETT CO , MD, US) observed 2055 UTC 22 June 2018
Temperature: 13.0°C (55°F)
Dewpoint: 13.0°C (55°F) [RH = 100%]
Pressure (altimeter): 29.92 inches Hg (1013.3 mb)
Winds: from the ESE (120 degrees) at 14 MPH (12 knots; 6.2 m/s)
gusting to 24 MPH (21 knots; 10.9 m/s)
Visibility: 0.25 miles (0.40 km)
Ceiling: 100 feet AGL
Clouds: overcast cloud deck at 100 feet AGL
Weather: automated observation with no human augmentation;
there may or may not be significant weather present at this time

METAR text: K2G4 222035Z AUTO 14011G19KT M1/4SM OVC001 13/13 A2993 RMK AO1
Conditions at: K2G4 (GARRETT CO , MD, US) observed 2035 UTC 22 June 2018
Temperature: 13.0°C (55°F)
Dewpoint: 13.0°C (55°F) [RH = 100%]
Pressure (altimeter): 29.93 inches Hg (1013.6 mb)
Winds: from the SE (140 degrees) at 13 MPH (11 knots; 5.7 m/s)
gusting to 22 MPH (19 knots; 9.9 m/s)
Visibility: 0.25 miles (0.40 km)
Ceiling: 100 feet AGL
Clouds: overcast cloud deck at 100 feet AGL
Weather: automated observation with no human augmentation;
there may or may not be significant weather present at this time

METAR text: K2G4 222015Z AUTO 13013G21KT M1/4SM OVC001 13/13 A2992 RMK AO1
Conditions at: K2G4 (GARRETT CO , MD, US) observed 2015 UTC 22 June 2018
Temperature: 13.0°C (55°F)
Dewpoint: 13.0°C (55°F) [RH = 100%]
Pressure (altimeter): 29.92 inches Hg (1013.3 mb)
Winds: from the SE (130 degrees) at 15 MPH (13 knots; 6.8 m/s)
gusting to 24 MPH (21 knots; 10.9 m/s)
Visibility: 0.25 miles (0.40 km)
Ceiling: 100 feet AGL
Clouds: overcast cloud deck at 100 feet AGL
Weather: automated observation with no human augmentation;
there may or may not be significant weather present at this time

METAR text: K2G4 221955Z AUTO 12011G21KT M1/4SM OVC001 13/13 A2992 RMK AO1
Conditions at: K2G4 (GARRETT CO , MD, US) observed 1955 UTC 22 June 2018
Temperature: 13.0°C (55°F)
Dewpoint: 13.0°C (55°F) [RH = 100%]
Pressure (altimeter): 29.92 inches Hg (1013.3 mb)
Winds: from the ESE (120 degrees) at 13 MPH (11 knots; 5.7 m/s)
gusting to 24 MPH (21 knots; 10.9 m/s)
Visibility: 0.25 miles (0.40 km)
Ceiling: 100 feet AGL
Clouds: overcast cloud deck at 100 feet AGL
Weather: automated observation with no human augmentation;
there may or may not be significant weather present at this time

METAR text: K2G4 221935Z AUTO 12018G25KT 1/4SM OVC001 13/13 A2992 RMK AO1
Conditions at: K2G4 (GARRETT CO , MD, US) observed 1935 UTC 22 June 2018
Temperature: 13.0°C (55°F)
Dewpoint: 13.0°C (55°F) [RH = 100%]
Pressure (altimeter): 29.92 inches Hg (1013.3 mb)
Winds: from the ESE (120 degrees) at 21 MPH (18 knots; 9.4 m/s)
gusting to 29 MPH (25 knots; 13.0 m/s)
Visibility: 0.25 miles (0.40 km)
Ceiling: 100 feet AGL
Clouds: overcast cloud deck at 100 feet AGL
Weather: automated observation with no human augmentation;
there may or may not be significant weather present at this time

METAR text: K2G4 221915Z AUTO 12017G23KT 2SM OVC001 13/13 A2992 RMK AO1
Conditions at: K2G4 (GARRETT CO , MD, US) observed 1915 UTC 22 June 2018
Temperature: 13.0°C (55°F)
Dewpoint: 13.0°C (55°F) [RH = 100%]
Pressure (altimeter): 29.92 inches Hg (1013.3 mb)
Winds: from the ESE (120 degrees) at 20 MPH (17 knots; 8.8 m/s)
gusting to 26 MPH (23 knots; 12.0 m/s)
Visibility: 2.00 miles (3.22 km)
Ceiling: 100 feet AGL
Clouds: overcast cloud deck at 100 feet AGL
Weather: automated observation with no human augmentation;
there may or may not be significant weather present at this time

METAR text: K2G4 221855Z AUTO 13015G21KT 10SM OVC003 13/13 A2992 RMK AO1
Conditions at: K2G4 (GARRETT CO , MD, US) observed 1855 UTC 22 June 2018
Temperature: 13.0°C (55°F)
Dewpoint: 13.0°C (55°F) [RH = 100%]
Pressure (altimeter): 29.92 inches Hg (1013.3 mb)
Winds: from the SE (130 degrees) at 17 MPH (15 knots; 7.8 m/s)
gusting to 24 MPH (21 knots; 10.9 m/s)
Visibility: 10 or more miles (16+ km)
Ceiling: 300 feet AGL
Clouds: overcast cloud deck at 300 feet AGL
Weather: automated observation with no human augmentation;
there may or may not be significant weather present at this time

METAR text: K2G4 221835Z AUTO 12017G26KT 10SM OVC005 14/13 A2993 RMK AO1
Conditions at: K2G4 (GARRETT CO , MD, US) observed 1835 UTC 22 June 2018
Temperature: 14.0°C (57°F)
Dewpoint: 13.0°C (55°F) [RH = 94%]
Pressure (altimeter): 29.93 inches Hg (1013.6 mb)
Winds: from the ESE (120 degrees) at 20 MPH (17 knots; 8.8 m/s)
gusting to 30 MPH (26 knots; 13.5 m/s)
Visibility: 10 or more miles (16+ km)
Ceiling: 500 feet AGL
Clouds: overcast cloud deck at 500 feet AGL
Weather: automated observation with no human augmentation;
there may or may not be significant weather present at this time

METAR text: K2G4 221815Z AUTO 12017G26KT 10SM OVC005 14/13 A2993 RMK AO1
Conditions at: K2G4 (GARRETT CO , MD, US) observed 1815 UTC 22 June 2018
Temperature: 14.0°C (57°F)
Dewpoint: 13.0°C (55°F) [RH = 94%]
Pressure (altimeter): 29.93 inches Hg (1013.6 mb)
Winds: from the ESE (120 degrees) at 20 MPH (17 knots; 8.8 m/s)
gusting to 30 MPH (26 knots; 13.5 m/s)
Visibility: 10 or more miles (16+ km)
Ceiling: 500 feet AGL
Clouds: overcast cloud deck at 500 feet AGL
Weather: automated observation with no human augmentation;
there may or may not be significant weather present at this time

METAR text: K2G4 221755Z AUTO 12018G28KT 10SM OVC007 14/13 A2993 RMK AO1
Conditions at: K2G4 (GARRETT CO , MD, US) observed 1755 UTC 22 June 2018
Temperature: 14.0°C (57°F)
Dewpoint: 13.0°C (55°F) [RH = 94%]
Pressure (altimeter): 29.93 inches Hg (1013.6 mb)
Winds: from the ESE (120 degrees) at 21 MPH (18 knots; 9.4 m/s)
gusting to 32 MPH (28 knots; 14.6 m/s)
Visibility: 10 or more miles (16+ km)
Ceiling: 700 feet AGL
Clouds: overcast cloud deck at 700 feet AGL
Weather: automated observation with no human augmentation;
there may or may not be significant weather present at this time

METAR text: K2G4 221735Z AUTO 12019G29KT 10SM OVC007 14/13 A2993 RMK AO1
Conditions at: K2G4 (GARRETT CO , MD, US) observed 1735 UTC 22 June 2018
Temperature: 14.0°C (57°F)
Dewpoint: 13.0°C (55°F) [RH = 94%]
Pressure (altimeter): 29.93 inches Hg (1013.6 mb)
Winds: from the ESE (120 degrees) at 22 MPH (19 knots; 9.9 m/s)
gusting to 33 MPH (29 knots; 15.1 m/s)
Visibility: 10 or more miles (16+ km)
Ceiling: 700 feet AGL
Clouds: overcast cloud deck at 700 feet AGL
Weather: automated observation with no human augmentation;
there may or may not be significant weather present at this time

METAR text: K2G4 221715Z AUTO 13020G27KT 10SM BKN007 BKN010 OVC015 15/13 A2994 RMK AO1
Conditions at: K2G4 (GARRETT CO , MD, US) observed 1715 UTC 22 June 2018
Temperature: 15.0°C (59°F)
Dewpoint: 13.0°C (55°F) [RH = 88%]
Pressure (altimeter): 29.94 inches Hg (1014.0 mb)
Winds: from the SE (130 degrees) at 23 MPH (20 knots; 10.4 m/s)
gusting to 31 MPH (27 knots; 14.0 m/s)
Visibility: 10 or more miles (16+ km)
Ceiling: 700 feet AGL
Clouds: broken clouds at 700 feet AGL
broken clouds at 1000 feet AGL
overcast cloud deck at 1500 feet AGL
Weather: automated observation with no human augmentation;
there may or may not be significant weather present at this time

METAR text: K2G4 221655Z AUTO 12019G30KT 10SM OVC007 16/13 A2993 RMK AO1
Conditions at: K2G4 (GARRETT CO , MD, US) observed 1655 UTC 22 June 2018
Temperature: 16.0°C (61°F)
Dewpoint: 13.0°C (55°F) [RH = 82%]
Pressure (altimeter): 29.93 inches Hg (1013.6 mb)
Winds: from the ESE (120 degrees) at 22 MPH (19 knots; 9.9 m/s)
gusting to 34 MPH (30 knots; 15.6 m/s)
Visibility: 10 or more miles (16+ km)
Ceiling: 700 feet AGL
Clouds: overcast cloud deck at 700 feet AGL
Weather: automated observation with no human augmentation;
there may or may not be significant weather present at this time

METAR text: K2G4 221635Z AUTO 12018G28KT 10SM OVC005 15/14 A2993 RMK AO1
Conditions at: K2G4 (GARRETT CO , MD, US) observed 1635 UTC 22 June 2018
Temperature: 15.0°C (59°F)
Dewpoint: 14.0°C (57°F) [RH = 94%]
Pressure (altimeter): 29.93 inches Hg (1013.6 mb)
Winds: from the ESE (120 degrees) at 21 MPH (18 knots; 9.4 m/s)
gusting to 32 MPH (28 knots; 14.6 m/s)
Visibility: 10 or more miles (16+ km)
Ceiling: 500 feet AGL
Clouds: overcast cloud deck at 500 feet AGL
Weather: automated observation with no human augmentation;
there may or may not be significant weather present at this time

METAR text: K2G4 221615Z AUTO 11018G33KT 10SM OVC005 15/13 A2993 RMK AO1
Conditions at: K2G4 (GARRETT CO , MD, US) observed 1615 UTC 22 June 2018
Temperature: 15.0°C (59°F)
Dewpoint: 13.0°C (55°F) [RH = 88%]
Pressure (altimeter): 29.93 inches Hg (1013.6 mb)
Winds: from the ESE (110 degrees) at 21 MPH (18 knots; 9.4 m/s)
gusting to 38 MPH (33 knots; 17.2 m/s)
Visibility: 10 or more miles (16+ km)
Ceiling: 500 feet AGL
Clouds: overcast cloud deck at 500 feet AGL
Weather: automated observation with no human augmentation;
there may or may not be significant weather present at this time

METAR text: K2G4 221555Z AUTO 10019G28KT 1SM OVC001 14/14 A2994 RMK AO1
Conditions at: K2G4 (GARRETT CO , MD, US) observed 1555 UTC 22 June 2018
Temperature: 14.0°C (57°F)
Dewpoint: 14.0°C (57°F) [RH = 100%]
Pressure (altimeter): 29.94 inches Hg (1014.0 mb)
Winds: from the E (100 degrees) at 22 MPH (19 knots; 9.9 m/s)
gusting to 32 MPH (28 knots; 14.6 m/s)
Visibility: 1.00 miles (1.61 km)
Ceiling: 100 feet AGL
Clouds: overcast cloud deck at 100 feet AGL
Weather: automated observation with no human augmentation;
there may or may not be significant weather present at this time

METAR text: K2G4 221535Z AUTO 11017G27KT 3/4SM OVC001 13/13 A2994 RMK AO1
Conditions at: K2G4 (GARRETT CO , MD, US) observed 1535 UTC 22 June 2018
Temperature: 13.0°C (55°F)
Dewpoint: 13.0°C (55°F) [RH = 100%]
Pressure (altimeter): 29.94 inches Hg (1014.0 mb)
Winds: from the ESE (110 degrees) at 20 MPH (17 knots; 8.8 m/s)
gusting to 31 MPH (27 knots; 14.0 m/s)
Visibility: 0.75 miles (1.21 km)
Ceiling: 100 feet AGL
Clouds: overcast cloud deck at 100 feet AGL
Weather: automated observation with no human augmentation;
there may or may not be significant weather present at this time

METAR text: K2G4 221515Z AUTO 12015G25KT 10SM OVC003 15/13 A2994 RMK AO1
Conditions at: K2G4 (GARRETT CO , MD, US) observed 1515 UTC 22 June 2018
Temperature: 15.0°C (59°F)
Dewpoint: 13.0°C (55°F) [RH = 88%]
Pressure (altimeter): 29.94 inches Hg (1014.0 mb)
Winds: from the ESE (120 degrees) at 17 MPH (15 knots; 7.8 m/s)
gusting to 29 MPH (25 knots; 13.0 m/s)
Visibility: 10 or more miles (16+ km)
Ceiling: 300 feet AGL
Clouds: overcast cloud deck at 300 feet AGL
Weather: automated observation with no human augmentation;
there may or may not be significant weather present at this time

METAR text: K2G4 221455Z AUTO 11017G23KT 10SM OVC007 15/13 A2994 RMK AO1
Conditions at: K2G4 (GARRETT CO , MD, US) observed 1455 UTC 22 June 2018
Temperature: 15.0°C (59°F)
Dewpoint: 13.0°C (55°F) [RH = 88%]
Pressure (altimeter): 29.94 inches Hg (1014.0 mb)
Winds: from the ESE (110 degrees) at 20 MPH (17 knots; 8.8 m/s)
gusting to 26 MPH (23 knots; 12.0 m/s)
Visibility: 10 or more miles (16+ km)
Ceiling: 700 feet AGL
Clouds: overcast cloud deck at 700 feet AGL
Weather: automated observation with no human augmentation;
there may or may not be significant weather present at this time

METAR text: K2G4 221435Z AUTO 11014G23KT 10SM OVC007 15/13 A2995 RMK AO1
Conditions at: K2G4 (GARRETT CO , MD, US) observed 1435 UTC 22 June 2018
Temperature: 15.0°C (59°F)
Dewpoint: 13.0°C (55°F) [RH = 88%]
Pressure (altimeter): 29.95 inches Hg (1014.3 mb)
Winds: from the ESE (110 degrees) at 16 MPH (14 knots; 7.3 m/s)
gusting to 26 MPH (23 knots; 12.0 m/s)
Visibility: 10 or more miles (16+ km)
Ceiling: 700 feet AGL
Clouds: overcast cloud deck at 700 feet AGL
Weather: automated observation with no human augmentation;
there may or may not be significant weather present at this time

METAR text: K2G4 221415Z AUTO 10019G26KT 10SM BKN007 OVC011 14/13 A2995 RMK AO1
Conditions at: K2G4 (GARRETT CO , MD, US) observed 1415 UTC 22 June 2018
Temperature: 14.0°C (57°F)
Dewpoint: 13.0°C (55°F) [RH = 94%]
Pressure (altimeter): 29.95 inches Hg (1014.3 mb)
Winds: from the E (100 degrees) at 22 MPH (19 knots; 9.9 m/s)
gusting to 30 MPH (26 knots; 13.5 m/s)
Visibility: 10 or more miles (16+ km)
Ceiling: 700 feet AGL
Clouds: broken clouds at 700 feet AGL
overcast cloud deck at 1100 feet AGL
Weather: automated observation with no human augmentation;
there may or may not be significant weather present at this time

METAR text: K2G4 221355Z AUTO 11016G25KT 10SM SCT001 BKN005 OVC011 14/13 A2995 RMK AO1
Conditions at: K2G4 (GARRETT CO , MD, US) observed 1355 UTC 22 June 2018
Temperature: 14.0°C (57°F)
Dewpoint: 13.0°C (55°F) [RH = 94%]
Pressure (altimeter): 29.95 inches Hg (1014.3 mb)
Winds: from the ESE (110 degrees) at 18 MPH (16 knots; 8.3 m/s)
gusting to 29 MPH (25 knots; 13.0 m/s)
Visibility: 10 or more miles (16+ km)
Ceiling: 500 feet AGL
Clouds: scattered clouds at 100 feet AGL
broken clouds at 500 feet AGL
overcast cloud deck at 1100 feet AGL
Weather: automated observation with no human augmentation;
there may or may not be significant weather present at this time

METAR text: K2G4 221335Z AUTO 11018G26KT 3SM BKN001 OVC005 14/14 A2995 RMK AO1
Conditions at: K2G4 (GARRETT CO , MD, US) observed 1335 UTC 22 June 2018
Temperature: 14.0°C (57°F)
Dewpoint: 14.0°C (57°F) [RH = 100%]
Pressure (altimeter): 29.95 inches Hg (1014.3 mb)
Winds: from the ESE (110 degrees) at 21 MPH (18 knots; 9.4 m/s)
gusting to 30 MPH (26 knots; 13.5 m/s)
Visibility: 3 miles (5 km)
Ceiling: 100 feet AGL
Clouds: broken clouds at 100 feet AGL
overcast cloud deck at 500 feet AGL
Weather: automated observation with no human augmentation;
there may or may not be significant weather present at this time

METAR text: K2G4 221315Z AUTO 12016G23KT 7SM OVC005 13/13 A2994 RMK AO1
Conditions at: K2G4 (GARRETT CO , MD, US) observed 1315 UTC 22 June 2018
Temperature: 13.0°C (55°F)
Dewpoint: 13.0°C (55°F) [RH = 100%]
Pressure (altimeter): 29.94 inches Hg (1014.0 mb)
Winds: from the ESE (120 degrees) at 18 MPH (16 knots; 8.3 m/s)
gusting to 26 MPH (23 knots; 12.0 m/s)
Visibility: 7 miles (11 km)
Ceiling: 500 feet AGL
Clouds: overcast cloud deck at 500 feet AGL
Weather: automated observation with no human augmentation;
there may or may not be significant weather present at this time

METAR text: K2G4 221255Z AUTO 11016G25KT 10SM OVC007 14/13 A2994 RMK AO1
Conditions at: K2G4 (GARRETT CO , MD, US) observed 1255 UTC 22 June 2018
Temperature: 14.0°C (57°F)
Dewpoint: 13.0°C (55°F) [RH = 94%]
Pressure (altimeter): 29.94 inches Hg (1014.0 mb)
Winds: from the ESE (110 degrees) at 18 MPH (16 knots; 8.3 m/s)
gusting to 29 MPH (25 knots; 13.0 m/s)
Visibility: 10 or more miles (16+ km)
Ceiling: 700 feet AGL
Clouds: overcast cloud deck at 700 feet AGL
Weather: automated observation with no human augmentation;
there may or may not be significant weather present at this time

METAR text: K2G4 221235Z AUTO 12015G22KT 10SM OVC005 14/14 A2994 RMK AO1
Conditions at: K2G4 (GARRETT CO , MD, US) observed 1235 UTC 22 June 2018
Temperature: 14.0°C (57°F)
Dewpoint: 14.0°C (57°F) [RH = 100%]
Pressure (altimeter): 29.94 inches Hg (1014.0 mb)
Winds: from the ESE (120 degrees) at 17 MPH (15 knots; 7.8 m/s)
gusting to 25 MPH (22 knots; 11.4 m/s)
Visibility: 10 or more miles (16+ km)
Ceiling: 500 feet AGL
Clouds: overcast cloud deck at 500 feet AGL
Weather: automated observation with no human augmentation;
there may or may not be significant weather present at this time

METAR text: K2G4 221215Z AUTO 11012G23KT 10SM OVC005 14/14 A2994 RMK AO1
Conditions at: K2G4 (GARRETT CO , MD, US) observed 1215 UTC 22 June 2018
Temperature: 14.0°C (57°F)
Dewpoint: 14.0°C (57°F) [RH = 100%]
Pressure (altimeter): 29.94 inches Hg (1014.0 mb)
Winds: from the ESE (110 degrees) at 14 MPH (12 knots; 6.2 m/s)
gusting to 26 MPH (23 knots; 12.0 m/s)
Visibility: 10 or more miles (16+ km)
Ceiling: 500 feet AGL
Clouds: overcast cloud deck at 500 feet AGL
Weather: automated observation with no human augmentation;
there may or may not be significant weather present at this time

METAR text: K2G4 221155Z AUTO 11015G23KT 10SM BKN005 BKN014 13/13 A2993 RMK AO1
Conditions at: K2G4 (GARRETT CO , MD, US) observed 1155 UTC 22 June 2018
Temperature: 13.0°C (55°F)
Dewpoint: 13.0°C (55°F) [RH = 100%]
Pressure (altimeter): 29.93 inches Hg (1013.6 mb)
Winds: from the ESE (110 degrees) at 17 MPH (15 knots; 7.8 m/s)
gusting to 26 MPH (23 knots; 12.0 m/s)
Visibility: 10 or more miles (16+ km)
Ceiling: 500 feet AGL
Clouds: broken clouds at 500 feet AGL
broken clouds at 1400 feet AGL
Weather: automated observation with no human augmentation;
there may or may not be significant weather present at this time

METAR text: K2G4 221135Z AUTO 11014G21KT 1 3/4SM OVC003 13/13 A2993 RMK AO1
Conditions at: K2G4 (GARRETT CO , MD, US) observed 1135 UTC 22 June 2018
Temperature: 13.0°C (55°F)
Dewpoint: 13.0°C (55°F) [RH = 100%]
Pressure (altimeter): 29.93 inches Hg (1013.6 mb)
Winds: from the ESE (110 degrees) at 16 MPH (14 knots; 7.3 m/s)
gusting to 24 MPH (21 knots; 10.9 m/s)
Visibility: 1.75 miles (2.82 km)
Ceiling: 300 feet AGL
Clouds: overcast cloud deck at 300 feet AGL
Weather: automated observation with no human augmentation;
there may or may not be significant weather present at this time

METAR text: K2G4 221115Z AUTO 11015G21KT 4SM SCT005 BKN009 OVC013 13/13 A2993 RMK AO1
Conditions at: K2G4 (GARRETT CO , MD, US) observed 1115 UTC 22 June 2018
Temperature: 13.0°C (55°F)
Dewpoint: 13.0°C (55°F) [RH = 100%]
Pressure (altimeter): 29.93 inches Hg (1013.6 mb)
Winds: from the ESE (110 degrees) at 17 MPH (15 knots; 7.8 m/s)
gusting to 24 MPH (21 knots; 10.9 m/s)
Visibility: 4 miles (6 km)
Ceiling: 900 feet AGL
Clouds: scattered clouds at 500 feet AGL
broken clouds at 900 feet AGL
overcast cloud deck at 1300 feet AGL
Weather: automated observation with no human augmentation;
there may or may not be significant weather present at this time

METAR text: K2G4 221055Z AUTO 12012G21KT 7SM SCT005 BKN011 OVC032 13/13 A2992 RMK AO1
Conditions at: K2G4 (GARRETT CO , MD, US) observed 1055 UTC 22 June 2018
Temperature: 13.0°C (55°F)
Dewpoint: 13.0°C (55°F) [RH = 100%]
Pressure (altimeter): 29.92 inches Hg (1013.3 mb)
Winds: from the ESE (120 degrees) at 14 MPH (12 knots; 6.2 m/s)
gusting to 24 MPH (21 knots; 10.9 m/s)
Visibility: 7 miles (11 km)
Ceiling: 1100 feet AGL
Clouds: scattered clouds at 500 feet AGL
broken clouds at 1100 feet AGL
overcast cloud deck at 3200 feet AGL
Weather: automated observation with no human augmentation;
there may or may not be significant weather present at this time

METAR text: K2G4 221035Z AUTO 11014G21KT 10SM BKN003 BKN018 BKN031 13/13 A2992 RMK AO1
Conditions at: K2G4 (GARRETT CO , MD, US) observed 1035 UTC 22 June 2018
Temperature: 13.0°C (55°F)
Dewpoint: 13.0°C (55°F) [RH = 100%]
Pressure (altimeter): 29.92 inches Hg (1013.3 mb)
Winds: from the ESE (110 degrees) at 16 MPH (14 knots; 7.3 m/s)
gusting to 24 MPH (21 knots; 10.9 m/s)
Visibility: 10 or more miles (16+ km)
Ceiling: 300 feet AGL
Clouds: broken clouds at 300 feet AGL
broken clouds at 1800 feet AGL
broken clouds at 3100 feet AGL
Weather: automated observation with no human augmentation;
there may or may not be significant weather present at this time

METAR text: K2G4 221015Z AUTO 11015G22KT 7SM OVC003 13/13 A2991 RMK AO1
Conditions at: K2G4 (GARRETT CO , MD, US) observed 1015 UTC 22 June 2018
Temperature: 13.0°C (55°F)
Dewpoint: 13.0°C (55°F) [RH = 100%]
Pressure (altimeter): 29.91 inches Hg (1013.0 mb)
Winds: from the ESE (110 degrees) at 17 MPH (15 knots; 7.8 m/s)
gusting to 25 MPH (22 knots; 11.4 m/s)
Visibility: 7 miles (11 km)
Ceiling: 300 feet AGL
Clouds: overcast cloud deck at 300 feet AGL
Weather: automated observation with no human augmentation;
there may or may not be significant weather present at this time

METAR text: K2G4 220955Z AUTO 11016G21KT 4SM OVC001 13/13 A2990 RMK AO1
Conditions at: K2G4 (GARRETT CO , MD, US) observed 0955 UTC 22 June 2018
Temperature: 13.0°C (55°F)
Dewpoint: 13.0°C (55°F) [RH = 100%]
Pressure (altimeter): 29.90 inches Hg (1012.6 mb)
Winds: from the ESE (110 degrees) at 18 MPH (16 knots; 8.3 m/s)
gusting to 24 MPH (21 knots; 10.9 m/s)
Visibility: 4 miles (6 km)
Ceiling: 100 feet AGL
Clouds: overcast cloud deck at 100 feet AGL
Weather: automated observation with no human augmentation;
there may or may not be significant weather present at this time

METAR text: K2G4 220935Z AUTO 12014G20KT 3SM OVC001 13/13 A2990 RMK AO1
Conditions at: K2G4 (GARRETT CO , MD, US) observed 0935 UTC 22 June 2018
Temperature: 13.0°C (55°F)
Dewpoint: 13.0°C (55°F) [RH = 100%]
Pressure (altimeter): 29.90 inches Hg (1012.6 mb)
Winds: from the ESE (120 degrees) at 16 MPH (14 knots; 7.3 m/s)
gusting to 23 MPH (20 knots; 10.4 m/s)
Visibility: 3 miles (5 km)
Ceiling: 100 feet AGL
Clouds: overcast cloud deck at 100 feet AGL
Weather: automated observation with no human augmentation;
there may or may not be significant weather present at this time

METAR text: K2G4 220915Z AUTO 11015G20KT 4SM OVC001 13/13 A2990 RMK AO1
Conditions at: K2G4 (GARRETT CO , MD, US) observed 0915 UTC 22 June 2018
Temperature: 13.0°C (55°F)
Dewpoint: 13.0°C (55°F) [RH = 100%]
Pressure (altimeter): 29.90 inches Hg (1012.6 mb)
Winds: from the ESE (110 degrees) at 17 MPH (15 knots; 7.8 m/s)
gusting to 23 MPH (20 knots; 10.4 m/s)
Visibility: 4 miles (6 km)
Ceiling: 100 feet AGL
Clouds: overcast cloud deck at 100 feet AGL
Weather: automated observation with no human augmentation;
there may or may not be significant weather present at this time

METAR text: K2G4 220855Z AUTO 10013G20KT 3SM OVC001 14/14 A2990 RMK AO1
Conditions at: K2G4 (GARRETT CO , MD, US) observed 0855 UTC 22 June 2018
Temperature: 14.0°C (57°F)
Dewpoint: 14.0°C (57°F) [RH = 100%]
Pressure (altimeter): 29.90 inches Hg (1012.6 mb)
Winds: from the E (100 degrees) at 15 MPH (13 knots; 6.8 m/s)
gusting to 23 MPH (20 knots; 10.4 m/s)
Visibility: 3 miles (5 km)
Ceiling: 100 feet AGL
Clouds: overcast cloud deck at 100 feet AGL
Weather: automated observation with no human augmentation;
there may or may not be significant weather present at this time

METAR text: K2G4 220835Z AUTO 11015G21KT 5SM OVC001 15/15 A2989 RMK AO1
Conditions at: K2G4 (GARRETT CO , MD, US) observed 0835 UTC 22 June 2018
Temperature: 15.0°C (59°F)
Dewpoint: 15.0°C (59°F) [RH = 100%]
Pressure (altimeter): 29.89 inches Hg (1012.3 mb)
Winds: from the ESE (110 degrees) at 17 MPH (15 knots; 7.8 m/s)
gusting to 24 MPH (21 knots; 10.9 m/s)
Visibility: 5 miles (8 km)
Ceiling: 100 feet AGL
Clouds: overcast cloud deck at 100 feet AGL
Weather: automated observation with no human augmentation;
there may or may not be significant weather present at this time

METAR text: K2G4 220815Z AUTO 11013G19KT 5SM OVC001 15/15 A2989 RMK AO1
Conditions at: K2G4 (GARRETT CO , MD, US) observed 0815 UTC 22 June 2018
Temperature: 15.0°C (59°F)
Dewpoint: 15.0°C (59°F) [RH = 100%]
Pressure (altimeter): 29.89 inches Hg (1012.3 mb)
Winds: from the ESE (110 degrees) at 15 MPH (13 knots; 6.8 m/s)
gusting to 22 MPH (19 knots; 9.9 m/s)
Visibility: 5 miles (8 km)
Ceiling: 100 feet AGL
Clouds: overcast cloud deck at 100 feet AGL
Weather: automated observation with no human augmentation;
there may or may not be significant weather present at this time

METAR text: K2G4 220755Z AUTO 11013G17KT 1SM OVC001 16/16 A2988 RMK AO1
Conditions at: K2G4 (GARRETT CO , MD, US) observed 0755 UTC 22 June 2018
Temperature: 16.0°C (61°F)
Dewpoint: 16.0°C (61°F) [RH = 100%]
Pressure (altimeter): 29.88 inches Hg (1011.9 mb)
Winds: from the ESE (110 degrees) at 15 MPH (13 knots; 6.8 m/s)
gusting to 20 MPH (17 knots; 8.8 m/s)
Visibility: 1.00 miles (1.61 km)
Ceiling: 100 feet AGL
Clouds: overcast cloud deck at 100 feet AGL
Weather: automated observation with no human augmentation;
there may or may not be significant weather present at this time

METAR text: K2G4 220735Z AUTO 11011G17KT 4SM OVC001 16/16 A2988 RMK AO1
Conditions at: K2G4 (GARRETT CO , MD, US) observed 0735 UTC 22 June 2018
Temperature: 16.0°C (61°F)
Dewpoint: 16.0°C (61°F) [RH = 100%]
Pressure (altimeter): 29.88 inches Hg (1011.9 mb)
Winds: from the ESE (110 degrees) at 13 MPH (11 knots; 5.7 m/s)
gusting to 20 MPH (17 knots; 8.8 m/s)
Visibility: 4 miles (6 km)
Ceiling: 100 feet AGL
Clouds: overcast cloud deck at 100 feet AGL
Weather: automated observation with no human augmentation;
there may or may not be significant weather present at this time

METAR text: K2G4 220715Z AUTO 12013KT 4SM OVC001 16/16 A2989 RMK AO1
Conditions at: K2G4 (GARRETT CO , MD, US) observed 0715 UTC 22 June 2018
Temperature: 16.0°C (61°F)
Dewpoint: 16.0°C (61°F) [RH = 100%]
Pressure (altimeter): 29.89 inches Hg (1012.3 mb)
Winds: from the ESE (120 degrees) at 15 MPH (13 knots; 6.8 m/s)
Visibility: 4 miles (6 km)
Ceiling: 100 feet AGL
Clouds: overcast cloud deck at 100 feet AGL
Weather: automated observation with no human augmentation;
there may or may not be significant weather present at this time

METAR text: K2G4 220655Z AUTO 11012G17KT 3SM OVC001 16/16 A2989 RMK AO1
Conditions at: K2G4 (GARRETT CO , MD, US) observed 0655 UTC 22 June 2018
Temperature: 16.0°C (61°F)
Dewpoint: 16.0°C (61°F) [RH = 100%]
Pressure (altimeter): 29.89 inches Hg (1012.3 mb)
Winds: from the ESE (110 degrees) at 14 MPH (12 knots; 6.2 m/s)
gusting to 20 MPH (17 knots; 8.8 m/s)
Visibility: 3 miles (5 km)
Ceiling: 100 feet AGL
Clouds: overcast cloud deck at 100 feet AGL
Weather: automated observation with no human augmentation;
there may or may not be significant weather present at this time

METAR text: K2G4 220635Z AUTO 12010KT 1/2SM OVC001 16/16 A2989 RMK AO1
Conditions at: K2G4 (GARRETT CO , MD, US) observed 0635 UTC 22 June 2018
Temperature: 16.0°C (61°F)
Dewpoint: 16.0°C (61°F) [RH = 100%]
Pressure (altimeter): 29.89 inches Hg (1012.3 mb)
Winds: from the ESE (120 degrees) at 12 MPH (10 knots; 5.2 m/s)
Visibility: 0.50 miles (0.80 km)
Ceiling: 100 feet AGL
Clouds: overcast cloud deck at 100 feet AGL
Weather: automated observation with no human augmentation;
there may or may not be significant weather present at this time

METAR text: K2G4 220615Z AUTO 11011KT 2 1/2SM OVC001 16/16 A2989 RMK AO1
Conditions at: K2G4 (GARRETT CO , MD, US) observed 0615 UTC 22 June 2018
Temperature: 16.0°C (61°F)
Dewpoint: 16.0°C (61°F) [RH = 100%]
Pressure (altimeter): 29.89 inches Hg (1012.3 mb)
Winds: from the ESE (110 degrees) at 13 MPH (11 knots; 5.7 m/s)
Visibility: 2.50 miles (4.02 km)
Ceiling: 100 feet AGL
Clouds: overcast cloud deck at 100 feet AGL
Weather: automated observation with no human augmentation;
there may or may not be significant weather present at this time

METAR text: K2G4 220555Z AUTO 11010G15KT 3SM BKN001 OVC006 16/16 A2989 RMK AO1
Conditions at: K2G4 (GARRETT CO , MD, US) observed 0555 UTC 22 June 2018
Temperature: 16.0°C (61°F)
Dewpoint: 16.0°C (61°F) [RH = 100%]
Pressure (altimeter): 29.89 inches Hg (1012.3 mb)
Winds: from the ESE (110 degrees) at 12 MPH (10 knots; 5.2 m/s)
gusting to 17 MPH (15 knots; 7.8 m/s)
Visibility: 3 miles (5 km)
Ceiling: 100 feet AGL
Clouds: broken clouds at 100 feet AGL
overcast cloud deck at 600 feet AGL
Weather: automated observation with no human augmentation;
there may or may not be significant weather present at this time

METAR text: K2G4 220535Z AUTO 11010G14KT 2 1/2SM BKN001 OVC005 16/16 A2990 RMK AO1
Conditions at: K2G4 (GARRETT CO , MD, US) observed 0535 UTC 22 June 2018
Temperature: 16.0°C (61°F)
Dewpoint: 16.0°C (61°F) [RH = 100%]
Pressure (altimeter): 29.90 inches Hg (1012.6 mb)
Winds: from the ESE (110 degrees) at 12 MPH (10 knots; 5.2 m/s)
gusting to 16 MPH (14 knots; 7.3 m/s)
Visibility: 2.50 miles (4.02 km)
Ceiling: 100 feet AGL
Clouds: broken clouds at 100 feet AGL
overcast cloud deck at 500 feet AGL
Weather: automated observation with no human augmentation;
there may or may not be significant weather present at this time

METAR text: K2G4 220515Z AUTO 11009G15KT 3SM OVC001 16/16 A2990 RMK AO1
Conditions at: K2G4 (GARRETT CO , MD, US) observed 0515 UTC 22 June 2018
Temperature: 16.0°C (61°F)
Dewpoint: 16.0°C (61°F) [RH = 100%]
Pressure (altimeter): 29.90 inches Hg (1012.6 mb)
Winds: from the ESE (110 degrees) at 10 MPH (9 knots; 4.7 m/s)
gusting to 17 MPH (15 knots; 7.8 m/s)
Visibility: 3 miles (5 km)
Ceiling: 100 feet AGL
Clouds: overcast cloud deck at 100 feet AGL
Weather: automated observation with no human augmentation;
there may or may not be significant weather present at this time

METAR text: K2G4 220455Z AUTO 12011KT 2 1/2SM OVC001 16/16 A2990 RMK AO1
Conditions at: K2G4 (GARRETT CO , MD, US) observed 0455 UTC 22 June 2018
Temperature: 16.0°C (61°F)
Dewpoint: 16.0°C (61°F) [RH = 100%]
Pressure (altimeter): 29.90 inches Hg (1012.6 mb)
Winds: from the ESE (120 degrees) at 13 MPH (11 knots; 5.7 m/s)
Visibility: 2.50 miles (4.02 km)
Ceiling: 100 feet AGL
Clouds: overcast cloud deck at 100 feet AGL
Weather: automated observation with no human augmentation;
there may or may not be significant weather present at this time

METAR text: K2G4 220435Z AUTO 12011G15KT 4SM OVC003 16/16 A2991 RMK AO1
Conditions at: K2G4 (GARRETT CO , MD, US) observed 0435 UTC 22 June 2018
Temperature: 16.0°C (61°F)
Dewpoint: 16.0°C (61°F) [RH = 100%]
Pressure (altimeter): 29.91 inches Hg (1013.0 mb)
Winds: from the ESE (120 degrees) at 13 MPH (11 knots; 5.7 m/s)
gusting to 17 MPH (15 knots; 7.8 m/s)
Visibility: 4 miles (6 km)
Ceiling: 300 feet AGL
Clouds: overcast cloud deck at 300 feet AGL
Weather: automated observation with no human augmentation;
there may or may not be significant weather present at this time

METAR text: K2G4 220415Z AUTO 11012KT 4SM OVC003 16/16 A2991 RMK AO1
Conditions at: K2G4 (GARRETT CO , MD, US) observed 0415 UTC 22 June 2018
Temperature: 16.0°C (61°F)
Dewpoint: 16.0°C (61°F) [RH = 100%]
Pressure (altimeter): 29.91 inches Hg (1013.0 mb)
Winds: from the ESE (110 degrees) at 14 MPH (12 knots; 6.2 m/s)
Visibility: 4 miles (6 km)
Ceiling: 300 feet AGL
Clouds: overcast cloud deck at 300 feet AGL
Weather: automated observation with no human augmentation;
there may or may not be significant weather present at this time

METAR text: K2G4 220355Z AUTO 11011KT 5SM OVC005 16/16 A2991 RMK AO1
Conditions at: K2G4 (GARRETT CO , MD, US) observed 0355 UTC 22 June 2018
Temperature: 16.0°C (61°F)
Dewpoint: 16.0°C (61°F) [RH = 100%]
Pressure (altimeter): 29.91 inches Hg (1013.0 mb)
Winds: from the ESE (110 degrees) at 13 MPH (11 knots; 5.7 m/s)
Visibility: 5 miles (8 km)
Ceiling: 500 feet AGL
Clouds: overcast cloud deck at 500 feet AGL
Weather: automated observation with no human augmentation;
there may or may not be significant weather present at this time

METAR text: K2G4 220335Z AUTO 12011G16KT 5SM OVC005 16/16 A2991 RMK AO1
Conditions at: K2G4 (GARRETT CO , MD, US) observed 0335 UTC 22 June 2018
Temperature: 16.0°C (61°F)
Dewpoint: 16.0°C (61°F) [RH = 100%]
Pressure (altimeter): 29.91 inches Hg (1013.0 mb)
Winds: from the ESE (120 degrees) at 13 MPH (11 knots; 5.7 m/s)
gusting to 18 MPH (16 knots; 8.3 m/s)
Visibility: 5 miles (8 km)
Ceiling: 500 feet AGL
Clouds: overcast cloud deck at 500 feet AGL
Weather: automated observation with no human augmentation;
there may or may not be significant weather present at this time

METAR text: K2G4 220315Z AUTO 12011G16KT 7SM BKN005 16/16 A2991 RMK AO1
Conditions at: K2G4 (GARRETT CO , MD, US) observed 0315 UTC 22 June 2018
Temperature: 16.0°C (61°F)
Dewpoint: 16.0°C (61°F) [RH = 100%]
Pressure (altimeter): 29.91 inches Hg (1013.0 mb)
Winds: from the ESE (120 degrees) at 13 MPH (11 knots; 5.7 m/s)
gusting to 18 MPH (16 knots; 8.3 m/s)
Visibility: 7 miles (11 km)
Ceiling: 500 feet AGL
Clouds: broken clouds at 500 feet AGL
Weather: automated observation with no human augmentation;
there may or may not be significant weather present at this time

METAR text: K2G4 220255Z AUTO 12010KT 7SM OVC005 16/16 A2992 RMK AO1
Conditions at: K2G4 (GARRETT CO , MD, US) observed 0255 UTC 22 June 2018
Temperature: 16.0°C (61°F)
Dewpoint: 16.0°C (61°F) [RH = 100%]
Pressure (altimeter): 29.92 inches Hg (1013.3 mb)
Winds: from the ESE (120 degrees) at 12 MPH (10 knots; 5.2 m/s)
Visibility: 7 miles (11 km)
Ceiling: 500 feet AGL
Clouds: overcast cloud deck at 500 feet AGL
Weather: automated observation with no human augmentation;
there may or may not be significant weather present at this time

METAR text: K2G4 220235Z AUTO 11010KT 7SM BKN005 BKN009 16/16 A2992 RMK AO1
Conditions at: K2G4 (GARRETT CO , MD, US) observed 0235 UTC 22 June 2018
Temperature: 16.0°C (61°F)
Dewpoint: 16.0°C (61°F) [RH = 100%]
Pressure (altimeter): 29.92 inches Hg (1013.3 mb)
Winds: from the ESE (110 degrees) at 12 MPH (10 knots; 5.2 m/s)
Visibility: 7 miles (11 km)
Ceiling: 500 feet AGL
Clouds: broken clouds at 500 feet AGL
broken clouds at 900 feet AGL
Weather: automated observation with no human augmentation;
there may or may not be significant weather present at this time

METAR text: K2G4 220215Z AUTO 12010KT 10SM SCT005 BKN036 16/16 A2992 RMK AO1
Conditions at: K2G4 (GARRETT CO , MD, US) observed 0215 UTC 22 June 2018
Temperature: 16.0°C (61°F)
Dewpoint: 16.0°C (61°F) [RH = 100%]
Pressure (altimeter): 29.92 inches Hg (1013.3 mb)
Winds: from the ESE (120 degrees) at 12 MPH (10 knots; 5.2 m/s)
Visibility: 10 or more miles (16+ km)
Ceiling: 3600 feet AGL
Clouds: scattered clouds at 500 feet AGL
broken clouds at 3600 feet AGL
Weather: automated observation with no human augmentation;
there may or may not be significant weather present at this time

METAR text: K2G4 220155Z AUTO 11009G15KT 10SM SCT005 SCT027 SCT036 17/17 A2991 RMK AO1
Conditions at: K2G4 (GARRETT CO , MD, US) observed 0155 UTC 22 June 2018
Temperature: 17.0°C (63°F)
Dewpoint: 17.0°C (63°F) [RH = 100%]
Pressure (altimeter): 29.91 inches Hg (1013.0 mb)
Winds: from the ESE (110 degrees) at 10 MPH (9 knots; 4.7 m/s)
gusting to 17 MPH (15 knots; 7.8 m/s)
Visibility: 10 or more miles (16+ km)
Ceiling: at least 12,000 feet AGL
Clouds: scattered clouds at 500 feet AGL
scattered clouds at 2700 feet AGL
scattered clouds at 3600 feet AGL
Weather: automated observation with no human augmentation;
there may or may not be significant weather present at this time

METAR text: K2G4 220135Z AUTO 12011G15KT 10SM SCT005 SCT029 SCT055 17/17 A2991 RMK AO1
Conditions at: K2G4 (GARRETT CO , MD, US) observed 0135 UTC 22 June 2018
Temperature: 17.0°C (63°F)
Dewpoint: 17.0°C (63°F) [RH = 100%]
Pressure (altimeter): 29.91 inches Hg (1013.0 mb)
Winds: from the ESE (120 degrees) at 13 MPH (11 knots; 5.7 m/s)
gusting to 17 MPH (15 knots; 7.8 m/s)
Visibility: 10 or more miles (16+ km)
Ceiling: at least 12,000 feet AGL
Clouds: scattered clouds at 500 feet AGL
scattered clouds at 2900 feet AGL
scattered clouds at 5500 feet AGL
Weather: automated observation with no human augmentation;
there may or may not be significant weather present at this time

METAR text: K2G4 220115Z AUTO 12008KT 10SM BKN005 BKN010 BKN029 17/17 A2990 RMK AO1
Conditions at: K2G4 (GARRETT CO , MD, US) observed 0115 UTC 22 June 2018
Temperature: 17.0°C (63°F)
Dewpoint: 17.0°C (63°F) [RH = 100%]
Pressure (altimeter): 29.90 inches Hg (1012.6 mb)
Winds: from the ESE (120 degrees) at 9 MPH (8 knots; 4.2 m/s)
Visibility: 10 or more miles (16+ km)
Ceiling: 500 feet AGL
Clouds: broken clouds at 500 feet AGL
broken clouds at 1000 feet AGL
broken clouds at 2900 feet AGL
Weather: automated observation with no human augmentation;
there may or may not be significant weather present at this time

METAR text: K2G4 220055Z AUTO 12009KT 10SM BKN003 BKN008 17/17 A2990 RMK AO1
Conditions at: K2G4 (GARRETT CO , MD, US) observed 0055 UTC 22 June 2018
Temperature: 17.0°C (63°F)
Dewpoint: 17.0°C (63°F) [RH = 100%]
Pressure (altimeter): 29.90 inches Hg (1012.6 mb)
Winds: from the ESE (120 degrees) at 10 MPH (9 knots; 4.7 m/s)
Visibility: 10 or more miles (16+ km)
Ceiling: 300 feet AGL
Clouds: broken clouds at 300 feet AGL
broken clouds at 800 feet AGL
Weather: automated observation with no human augmentation;
there may or may not be significant weather present at this time

METAR text: K2G4 220035Z AUTO 12008KT 10SM OVC005 17/17 A2990 RMK AO1
Conditions at: K2G4 (GARRETT CO , MD, US) observed 0035 UTC 22 June 2018
Temperature: 17.0°C (63°F)
Dewpoint: 17.0°C (63°F) [RH = 100%]
Pressure (altimeter): 29.90 inches Hg (1012.6 mb)
Winds: from the ESE (120 degrees) at 9 MPH (8 knots; 4.2 m/s)
Visibility: 10 or more miles (16+ km)
Ceiling: 500 feet AGL
Clouds: overcast cloud deck at 500 feet AGL
Weather: automated observation with no human augmentation;
there may or may not be significant weather present at this time

METAR text: K2G4 220015Z AUTO 12007KT 10SM BKN005 BKN008 BKN033 17/17 A2990 RMK AO1
Conditions at: K2G4 (GARRETT CO , MD, US) observed 0015 UTC 22 June 2018
Temperature: 17.0°C (63°F)
Dewpoint: 17.0°C (63°F) [RH = 100%]
Pressure (altimeter): 29.90 inches Hg (1012.6 mb)
Winds: from the ESE (120 degrees) at 8 MPH (7 knots; 3.6 m/s)
Visibility: 10 or more miles (16+ km)
Ceiling: 500 feet AGL
Clouds: broken clouds at 500 feet AGL
broken clouds at 800 feet AGL
broken clouds at 3300 feet AGL
Weather: automated observation with no human augmentation;
there may or may not be significant weather present at this time

METAR text: K2G4 212355Z AUTO 11007KT 10SM SCT005 SCT009 BKN019 17/17 A2990 RMK AO1
Conditions at: K2G4 (GARRETT CO , MD, US) observed 2355 UTC 21 June 2018
Temperature: 17.0°C (63°F)
Dewpoint: 17.0°C (63°F) [RH = 100%]
Pressure (altimeter): 29.90 inches Hg (1012.6 mb)
Winds: from the ESE (110 degrees) at 8 MPH (7 knots; 3.6 m/s)
Visibility: 10 or more miles (16+ km)
Ceiling: 1900 feet AGL
Clouds: scattered clouds at 500 feet AGL
scattered clouds at 900 feet AGL
broken clouds at 1900 feet AGL
Weather: automated observation with no human augmentation;
there may or may not be significant weather present at this time

METAR text: K2G4 212335Z AUTO 12006KT 10SM SCT007 OVC018 18/18 A2990 RMK AO1
Conditions at: K2G4 (GARRETT CO , MD, US) observed 2335 UTC 21 June 2018
Temperature: 18.0°C (64°F)
Dewpoint: 18.0°C (64°F) [RH = 100%]
Pressure (altimeter): 29.90 inches Hg (1012.6 mb)
Winds: from the ESE (120 degrees) at 7 MPH (6 knots; 3.1 m/s)
Visibility: 10 or more miles (16+ km)
Ceiling: 1800 feet AGL
Clouds: scattered clouds at 700 feet AGL
overcast cloud deck at 1800 feet AGL
Weather: automated observation with no human augmentation;
there may or may not be significant weather present at this time

METAR text: K2G4 212315Z AUTO 11007KT 10SM BKN016 BKN024 BKN030 18/17 A2990 RMK AO1
Conditions at: K2G4 (GARRETT CO , MD, US) observed 2315 UTC 21 June 2018
Temperature: 18.0°C (64°F)
Dewpoint: 17.0°C (63°F) [RH = 94%]
Pressure (altimeter): 29.90 inches Hg (1012.6 mb)
Winds: from the ESE (110 degrees) at 8 MPH (7 knots; 3.6 m/s)
Visibility: 10 or more miles (16+ km)
Ceiling: 1600 feet AGL
Clouds: broken clouds at 1600 feet AGL
broken clouds at 2400 feet AGL
broken clouds at 3000 feet AGL
Weather: automated observation with no human augmentation;
there may or may not be significant weather present at this time

METAR text: K2G4 212255Z AUTO 09005KT 10SM BKN012 BKN018 18/17 A2990 RMK AO1
Conditions at: K2G4 (GARRETT CO , MD, US) observed 2255 UTC 21 June 2018
Temperature: 18.0°C (64°F)
Dewpoint: 17.0°C (63°F) [RH = 94%]
Pressure (altimeter): 29.90 inches Hg (1012.6 mb)
Winds: from the E (90 degrees) at 6 MPH (5 knots; 2.6 m/s)
Visibility: 10 or more miles (16+ km)
Ceiling: 1200 feet AGL
Clouds: broken clouds at 1200 feet AGL
broken clouds at 1800 feet AGL
Weather: automated observation with no human augmentation;
there may or may not be significant weather present at this time